createdAt,value
2022-08-24T00:02:04.557Z,2.05
2022-08-24T00:04:32.196Z,2.85
2022-08-24T00:06:59.729Z,2.28
2022-08-24T00:09:26.353Z,2.03
2022-08-24T00:11:53.067Z,2.45
2022-08-24T00:14:19.904Z,2.30
2022-08-24T00:16:46.668Z,2.33
2022-08-24T00:19:13.436Z,2.13
2022-08-24T00:21:40.095Z,2.72
2022-08-24T00:24:06.896Z,2.25
2022-08-24T00:26:33.676Z,2.70
2022-08-24T00:29:05.449Z,2.55
2022-08-24T00:31:34.294Z,2.38
2022-08-24T00:34:00.988Z,2.30
2022-08-24T00:36:27.639Z,2.70
2022-08-24T00:38:54.345Z,2.67
2022-08-24T00:41:21.413Z,2.60
2022-08-24T00:43:57.305Z,2.90
2022-08-24T00:46:23.908Z,2.58
2022-08-24T00:48:54.033Z,2.50
2022-08-24T00:51:23.880Z,2.90
2022-08-24T00:54:04.731Z,2.83
2022-08-24T00:56:34.434Z,3.17
2022-08-24T00:59:03.562Z,3.42
2022-08-24T01:01:31.323Z,2.83
2022-08-24T01:03:58.347Z,3.17
2022-08-24T01:06:25.238Z,3.00
2022-08-24T01:08:56.719Z,2.60
2022-08-24T01:11:26.392Z,3.10
2022-08-24T01:13:53.677Z,2.97
2022-08-24T01:16:41.118Z,3.45
2022-08-24T01:19:27.727Z,2.70
2022-08-24T01:22:13.161Z,3.28
2022-08-24T01:24:40.599Z,3.28
2022-08-24T01:27:09.715Z,3.17
2022-08-24T01:29:37.630Z,2.92
2022-08-24T01:32:05.096Z,3.45
2022-08-24T01:34:31.838Z,2.92
2022-08-24T01:37:00.237Z,3.20
2022-08-24T01:39:28.796Z,3.10
2022-08-24T01:41:56.041Z,2.95
2022-08-24T01:44:23.652Z,3.22
2022-08-24T01:46:52.748Z,2.90
2022-08-24T01:49:20.511Z,2.88
2022-08-24T01:51:47.511Z,2.75
2022-08-24T01:54:16.155Z,2.47
2022-08-24T01:56:43.968Z,2.92
2022-08-24T01:59:12.515Z,2.95
2022-08-24T02:01:44.595Z,2.90
2022-08-24T02:04:11.424Z,2.63
2022-08-24T02:06:45.833Z,2.60
2022-08-24T02:09:13.877Z,2.90
2022-08-24T02:11:41.480Z,2.97
2022-08-24T02:14:11.638Z,3.10
2022-08-24T02:16:41.242Z,2.97
2022-08-24T02:19:08.649Z,2.90
2022-08-24T02:21:35.852Z,2.65
2022-08-24T02:24:02.789Z,3.10
2022-08-24T02:26:31.576Z,3.00
2022-08-24T02:28:59.225Z,3.00
2022-08-24T02:31:27.023Z,2.70
2022-08-24T02:33:53.672Z,3.10
2022-08-24T02:36:26.219Z,3.55
2022-08-24T02:38:56.712Z,2.97
2022-08-24T02:41:26.814Z,3.13
2022-08-24T02:43:55.354Z,2.80
2022-08-24T02:46:23.659Z,2.60
2022-08-24T02:48:57.410Z,2.72
2022-08-24T02:51:44.238Z,2.55
2022-08-24T02:54:17.621Z,2.78
2022-08-24T02:56:46.341Z,2.70
2022-08-24T02:59:14.073Z,2.38
2022-08-24T03:01:41.197Z,2.70
2022-08-24T03:04:08.065Z,2.90
2022-08-24T03:06:34.926Z,3.00
2022-08-24T03:09:01.833Z,2.90
2022-08-24T03:11:28.615Z,2.50
2022-08-24T03:13:56.360Z,2.60
2022-08-24T03:16:23.033Z,2.40
2022-08-24T03:18:49.940Z,3.38
2022-08-24T03:21:16.866Z,2.78
2022-08-24T03:23:44.553Z,2.60
2022-08-24T03:26:12.102Z,2.75
2022-08-24T03:28:39.309Z,2.72
2022-08-24T03:31:06.631Z,2.70
2022-08-24T03:33:33.259Z,2.03
2022-08-24T03:36:00.301Z,2.58
2022-08-24T03:38:27.255Z,2.53
2022-08-24T03:40:55.787Z,2.45
2022-08-24T03:43:41.225Z,2.70
2022-08-24T03:46:08.839Z,3.25
2022-08-24T03:48:40.172Z,2.30
2022-08-24T03:51:14.086Z,2.95
2022-08-24T03:53:43.004Z,2.53
2022-08-24T03:56:10.849Z,2.60
2022-08-24T03:58:38.585Z,2.60
2022-08-24T04:01:06.006Z,2.47
2022-08-24T04:03:37.107Z,2.95
2022-08-24T04:06:05.415Z,3.50
2022-08-24T04:08:32.800Z,3.13
2022-08-24T04:10:59.673Z,3.42
2022-08-24T04:13:26.561Z,2.97
2022-08-24T04:15:54.170Z,3.30
2022-08-24T04:18:20.951Z,2.72
2022-08-24T04:20:47.727Z,2.50
2022-08-24T04:23:18.968Z,3.15
2022-08-24T04:25:47.031Z,2.90
2022-08-24T04:28:15.536Z,2.78
2022-08-24T04:30:43.524Z,3.25
2022-08-24T04:33:12.580Z,2.75
2022-08-24T04:35:40.624Z,2.97
2022-08-24T04:38:08.253Z,3.00
2022-08-24T04:40:35.515Z,2.85
2022-08-24T04:43:03.349Z,2.97
2022-08-24T04:45:31.234Z,2.85
2022-08-24T04:47:58.025Z,2.65
2022-08-24T04:50:26.872Z,3.00
2022-08-24T04:52:57.121Z,2.72
2022-08-24T04:55:23.791Z,2.95
2022-08-24T04:57:50.694Z,2.83
2022-08-24T05:00:17.601Z,2.53
2022-08-24T05:02:45.152Z,2.70
2022-08-24T05:05:13.441Z,2.80
2022-08-24T05:07:40.075Z,3.20
2022-08-24T05:10:08.919Z,2.55
2022-08-24T05:12:35.917Z,3.05
2022-08-24T05:15:07.371Z,2.83
2022-08-24T05:17:41.031Z,3.10
2022-08-24T05:20:10.422Z,2.55
2022-08-24T05:22:38.160Z,3.42
2022-08-24T05:25:05.371Z,2.80
2022-08-24T05:27:33.229Z,2.78
2022-08-24T05:30:00.001Z,3.05
2022-08-24T05:32:26.915Z,3.22
2022-08-24T05:34:54.456Z,3.13
2022-08-24T05:37:21.861Z,3.55
2022-08-24T05:40:12.932Z,3.75
2022-08-24T05:42:42.830Z,3.50
2022-08-24T05:45:10.700Z,3.13
2022-08-24T05:47:37.554Z,3.20
2022-08-24T05:50:12.223Z,3.10
2022-08-24T05:52:38.960Z,4.35
2022-08-24T05:55:06.669Z,3.40
2022-08-24T05:57:34.979Z,4.05
2022-08-24T06:00:12.621Z,3.95
2022-08-24T06:02:48.940Z,4.00
2022-08-24T06:05:15.937Z,4.32
2022-08-24T06:07:43.302Z,4.20
2022-08-24T06:10:35.374Z,3.80
2022-08-24T06:12:58.420Z,4.32
2022-08-24T06:15:25.245Z,3.88
2022-08-24T06:17:52.110Z,3.85
2022-08-24T06:20:18.833Z,3.92
2022-08-24T06:22:45.479Z,4.50
2022-08-24T06:25:30.905Z,3.97
2022-08-24T06:27:58.924Z,3.85
2022-08-24T06:30:30.642Z,3.80
2022-08-24T06:33:18.283Z,3.95
2022-08-24T06:35:48.006Z,3.72
2022-08-24T06:38:14.867Z,4.25
2022-08-24T06:40:44.844Z,3.72
2022-08-24T06:43:12.150Z,3.80
2022-08-24T06:45:48.087Z,3.53
2022-08-24T06:48:19.340Z,3.63
2022-08-24T06:50:47.401Z,3.92
2022-08-24T06:53:15.089Z,3.88
2022-08-24T06:55:46.629Z,4.20
2022-08-24T06:58:13.332Z,4.20
2022-08-24T07:00:40.320Z,4.20
2022-08-24T07:03:07.485Z,3.67
2022-08-24T07:05:35.668Z,3.85
2022-08-24T07:08:30.852Z,3.53
2022-08-24T07:10:58.388Z,4.15
2022-08-24T07:13:25.455Z,4.18
2022-08-24T07:15:52.614Z,3.05
2022-08-24T07:18:19.898Z,3.63
2022-08-24T07:20:49.805Z,3.70
2022-08-24T07:23:41.725Z,3.17
2022-08-24T07:26:21.132Z,3.55
2022-08-24T07:28:51.828Z,3.03
2022-08-24T07:31:19.010Z,2.70
2022-08-24T07:33:53.143Z,3.30
2022-08-24T07:36:22.137Z,3.10
2022-08-24T07:38:52.374Z,3.20
2022-08-24T07:41:40.419Z,3.53
2022-08-24T07:44:06.829Z,2.72
2022-08-24T07:46:33.766Z,2.90
2022-08-24T07:49:11.642Z,3.15
2022-08-24T07:51:42.243Z,2.80
2022-08-24T07:54:13.661Z,3.15
2022-08-24T07:56:43.016Z,2.90
2022-08-24T07:59:13.044Z,3.42
2022-08-24T08:01:40.718Z,3.22
2022-08-24T08:04:09.994Z,2.85
2022-08-24T08:06:36.892Z,2.72
2022-08-24T08:09:05.264Z,2.72
2022-08-24T08:11:32.229Z,2.85
2022-08-24T08:13:59.206Z,2.67
2022-08-24T08:16:26.412Z,2.70
2022-08-24T08:19:09.238Z,2.63
2022-08-24T08:22:02.658Z,2.97
2022-08-24T08:24:32.420Z,2.50
2022-08-24T08:27:03.523Z,2.55
2022-08-24T08:29:36.583Z,2.47
2022-08-24T08:32:03.993Z,2.47
2022-08-24T08:34:31.573Z,2.80
2022-08-24T08:36:58.924Z,2.28
2022-08-24T08:39:26.221Z,2.20
2022-08-24T08:42:15.150Z,2.38
2022-08-24T08:44:57.862Z,2.20
2022-08-24T08:47:37.559Z,2.45
2022-08-24T08:50:23.897Z,2.33
2022-08-24T08:52:54.217Z,2.40
2022-08-24T08:55:29.156Z,2.08
2022-08-24T08:58:00.007Z,3.00
2022-08-24T09:00:50.273Z,2.25
2022-08-24T09:03:32.795Z,2.00
2022-08-24T09:06:22.612Z,2.20
2022-08-24T09:08:57.464Z,2.22
2022-08-24T09:11:40.989Z,2.63
2022-08-24T09:14:14.285Z,2.22
2022-08-24T09:17:13.182Z,2.20
2022-08-24T09:19:40.378Z,2.60
2022-08-24T09:22:12.795Z,2.58
2022-08-24T09:24:52.447Z,2.33
2022-08-24T09:27:59.550Z,2.17
2022-08-24T09:30:31.186Z,2.70
2022-08-24T09:33:07.557Z,1.92
2022-08-24T09:35:37.546Z,2.60
2022-08-24T09:38:33.588Z,2.10
2022-08-24T09:41:18.983Z,2.13
2022-08-24T09:43:48.943Z,2.10
2022-08-24T09:46:30.894Z,2.65
2022-08-24T09:49:16.418Z,1.90
2022-08-24T09:51:46.474Z,1.95
2022-08-24T09:54:31.865Z,2.20
2022-08-24T09:57:12.507Z,1.67
2022-08-24T09:59:52.022Z,2.28
2022-08-24T10:02:45.281Z,2.00
2022-08-24T10:05:37.014Z,1.75
2022-08-24T10:08:09.994Z,2.00
2022-08-24T10:10:51.727Z,2.38
2022-08-24T10:13:18.581Z,1.80
2022-08-24T10:15:51.783Z,2.30
2022-08-24T10:18:38.545Z,2.00
2022-08-24T10:21:08.995Z,1.88
2022-08-24T10:23:38.698Z,1.88
2022-08-24T10:26:21.831Z,1.80
2022-08-24T10:29:18.419Z,2.22
2022-08-24T10:32:04.013Z,2.20
2022-08-24T10:34:49.351Z,1.60
2022-08-24T10:37:42.476Z,1.80
2022-08-24T10:40:13.490Z,1.77
2022-08-24T10:43:02.438Z,1.90
2022-08-24T10:45:32.148Z,1.50
2022-08-24T10:48:17.901Z,1.40
2022-08-24T10:51:00.063Z,1.30
2022-08-24T10:53:28.120Z,1.38
2022-08-24T10:56:03.420Z,1.17
2022-08-24T10:58:49.483Z,1.40
2022-08-24T11:01:18.402Z,1.40
2022-08-24T11:04:05.040Z,1.38
2022-08-24T11:06:33.989Z,1.40
2022-08-24T11:09:03.852Z,1.13
2022-08-24T11:11:59.978Z,1.33
2022-08-24T11:14:30.633Z,1.15
2022-08-24T11:17:17.273Z,1.10
2022-08-24T11:19:44.158Z,1.13
2022-08-24T11:22:39.481Z,1.10
2022-08-24T11:25:16.916Z,1.30
2022-08-24T11:27:46.006Z,1.23
2022-08-24T11:30:22.993Z,1.02
2022-08-24T11:32:57.206Z,1.10
2022-08-24T11:35:25.938Z,1.23
2022-08-24T11:37:57.398Z,1.10
2022-08-24T11:40:30.648Z,1.38
2022-08-24T11:43:11.748Z,1.13
2022-08-24T11:46:01.282Z,1.00
2022-08-24T11:48:43.684Z,1.10
2022-08-24T11:51:29.527Z,1.20
2022-08-24T11:54:03.306Z,1.20
2022-08-24T11:56:45.710Z,1.33
2022-08-24T11:59:29.454Z,1.45
2022-08-24T12:01:58.715Z,1.00
2022-08-24T12:04:31.863Z,1.30
2022-08-24T12:07:02.949Z,1.20
2022-08-24T12:09:48.496Z,1.10
2022-08-24T12:12:24.933Z,1.00
2022-08-24T12:14:55.191Z,1.10
2022-08-24T12:17:27.347Z,1.10
2022-08-24T12:20:01.449Z,1.27
2022-08-24T12:22:28.994Z,0.93
2022-08-24T12:24:57.135Z,1.20
2022-08-24T12:27:29.586Z,1.20
2022-08-24T12:30:05.561Z,1.10
2022-08-24T12:32:50.377Z,1.13
2022-08-24T12:35:22.832Z,0.93
2022-08-24T12:37:57.459Z,1.13
2022-08-24T12:40:49.396Z,1.10
2022-08-24T12:43:35.283Z,1.23
2022-08-24T12:46:02.269Z,1.10
2022-08-24T12:48:32.831Z,1.08
2022-08-24T12:51:17.515Z,1.30
2022-08-24T12:54:02.384Z,1.00
2022-08-24T12:56:29.056Z,1.48
2022-08-24T12:59:05.557Z,1.23
2022-08-24T13:01:35.702Z,1.15
2022-08-24T13:04:13.712Z,1.00
2022-08-24T13:06:42.825Z,1.10
2022-08-24T13:09:29.809Z,1.35
2022-08-24T13:11:59.922Z,0.90
2022-08-24T13:14:29.781Z,1.10
2022-08-24T13:16:59.127Z,1.20
2022-08-24T13:19:28.885Z,1.13
2022-08-24T13:21:58.797Z,1.20
2022-08-24T13:24:28.630Z,1.10
2022-08-24T13:27:11.198Z,0.88
2022-08-24T13:29:46.270Z,1.50
2022-08-24T13:32:17.758Z,1.00
2022-08-24T13:34:45.999Z,1.10
2022-08-24T13:37:22.353Z,1.40
2022-08-24T13:39:49.075Z,1.13
2022-08-24T13:42:41.249Z,1.33
2022-08-24T13:45:19.911Z,1.33
2022-08-24T13:47:52.563Z,1.27
2022-08-24T13:50:38.919Z,1.00
2022-08-24T13:53:24.487Z,1.00
2022-08-24T13:56:11.233Z,0.98
2022-08-24T13:58:43.542Z,1.48
2022-08-24T14:01:31.240Z,1.20
2022-08-24T14:04:13.801Z,1.05
2022-08-24T14:06:56.153Z,1.48
2022-08-24T14:09:22.992Z,1.20
2022-08-24T14:12:01.762Z,1.10
2022-08-24T14:14:36.306Z,1.20
2022-08-24T14:17:40.665Z,1.10
2022-08-24T14:20:26.494Z,1.30
2022-08-24T14:22:56.240Z,1.10
2022-08-24T14:25:24.635Z,1.00
2022-08-24T14:27:54.276Z,1.23
2022-08-24T14:30:23.397Z,1.20
2022-08-24T14:33:03.488Z,1.40
2022-08-24T14:35:42.254Z,1.35
2022-08-24T14:38:24.053Z,1.60
2022-08-24T14:41:09.396Z,1.40
2022-08-24T14:43:42.137Z,1.30
2022-08-24T14:46:19.341Z,1.02
2022-08-24T14:48:55.521Z,1.25
2022-08-24T14:51:37.534Z,1.27
2022-08-24T14:54:04.327Z,1.30
2022-08-24T14:56:48.023Z,1.58
2022-08-24T14:59:32.739Z,1.20
2022-08-24T15:02:19.385Z,1.33
2022-08-24T15:04:48.566Z,1.25
2022-08-24T15:07:24.621Z,1.83
2022-08-24T15:09:51.815Z,1.30
2022-08-24T15:12:18.576Z,1.55
2022-08-24T15:14:52.995Z,1.80
2022-08-24T15:17:23.832Z,1.50
2022-08-24T15:19:54.118Z,1.27
2022-08-24T15:22:37.895Z,1.23
2022-08-24T15:25:11.389Z,1.20
2022-08-24T15:27:55.272Z,1.60
2022-08-24T15:30:24.379Z,1.40
2022-08-24T15:32:53.209Z,1.35
2022-08-24T15:35:37.412Z,1.48
2022-08-24T15:38:24.353Z,1.20
2022-08-24T15:41:06.212Z,1.45
2022-08-24T15:43:34.327Z,1.23
2022-08-24T15:46:01.757Z,1.30
2022-08-24T15:48:30.050Z,1.50
2022-08-24T15:50:56.893Z,1.48
2022-08-24T15:53:35.745Z,1.58
2022-08-24T15:56:14.682Z,1.25
2022-08-24T15:58:41.449Z,1.70
2022-08-24T16:01:29.896Z,1.65
2022-08-24T16:04:08.195Z,1.35
2022-08-24T16:06:40.045Z,1.25
2022-08-24T16:09:19.580Z,1.50
2022-08-24T16:11:51.346Z,1.70
2022-08-24T16:14:31.051Z,1.55
2022-08-24T16:16:58.201Z,1.50
2022-08-24T16:19:26.989Z,1.70
2022-08-24T16:22:05.922Z,1.52
2022-08-24T16:24:35.158Z,1.63
2022-08-24T16:27:10.545Z,1.58
2022-08-24T16:29:37.819Z,1.40
2022-08-24T16:32:09.035Z,1.70
2022-08-24T16:34:37.119Z,1.45
2022-08-24T16:37:04.810Z,1.60
2022-08-24T16:39:31.816Z,1.45
2022-08-24T16:42:00.923Z,2.20
2022-08-24T16:44:33.886Z,1.60
2022-08-24T16:47:01.255Z,1.58
2022-08-24T16:49:27.910Z,1.67
2022-08-24T16:51:54.894Z,1.67
2022-08-24T16:54:21.642Z,1.42
2022-08-24T16:56:48.386Z,1.70
2022-08-24T16:59:18.742Z,1.40
2022-08-24T17:01:45.345Z,1.60
2022-08-24T17:04:12.118Z,1.33
2022-08-24T17:06:38.737Z,1.73
2022-08-24T17:09:05.400Z,1.35
2022-08-24T17:11:33.258Z,1.55
2022-08-24T17:14:00.210Z,1.50
2022-08-24T17:16:26.917Z,1.60
2022-08-24T17:18:53.578Z,1.60
2022-08-24T17:21:21.246Z,1.90
2022-08-24T17:23:48.074Z,1.90
2022-08-24T17:26:20.736Z,1.45
2022-08-24T17:28:49.307Z,1.80
2022-08-24T17:31:16.134Z,2.10
2022-08-24T17:33:42.877Z,1.70
2022-08-24T17:36:13.203Z,1.65
2022-08-24T17:38:45.897Z,1.70
2022-08-24T17:41:14.701Z,1.67
2022-08-24T17:43:45.948Z,1.88
2022-08-24T17:46:14.411Z,2.60
2022-08-24T17:48:43.448Z,1.80
2022-08-24T17:51:10.855Z,1.98
2022-08-24T17:53:37.943Z,1.52
2022-08-24T17:56:08.998Z,2.03
2022-08-24T17:58:55.854Z,2.00
2022-08-24T18:01:23.483Z,2.10
2022-08-24T18:03:50.501Z,2.20
2022-08-24T18:06:18.066Z,1.77
2022-08-24T18:08:45.615Z,1.77
2022-08-24T18:11:12.270Z,1.77
2022-08-24T18:13:39.150Z,1.60
2022-08-24T18:16:08.018Z,1.60
2022-08-24T18:18:35.600Z,1.65
2022-08-24T18:21:02.308Z,1.83
2022-08-24T18:23:29.399Z,1.88
2022-08-24T18:25:56.102Z,1.70
2022-08-24T18:28:23.164Z,1.70
2022-08-24T18:30:50.705Z,2.28
2022-08-24T18:33:17.806Z,1.88
2022-08-24T18:35:46.311Z,1.60
2022-08-24T18:38:14.088Z,1.92
2022-08-24T18:40:46.854Z,1.85
2022-08-24T18:43:20.596Z,2.10
2022-08-24T18:45:47.254Z,2.00
2022-08-24T18:48:13.913Z,1.83
2022-08-24T18:50:42.209Z,1.80
2022-08-24T18:53:09.172Z,1.95
2022-08-24T18:55:38.609Z,2.05
2022-08-24T18:58:05.530Z,2.20
2022-08-24T19:00:32.370Z,1.80
2022-08-24T19:03:01.913Z,2.10
2022-08-24T19:05:29.022Z,2.17
2022-08-24T19:07:55.718Z,2.08
2022-08-24T19:10:23.846Z,2.17
2022-08-24T19:12:52.510Z,1.98
2022-08-24T19:15:31.979Z,2.25
2022-08-24T19:18:06.695Z,1.90
2022-08-24T19:20:34.331Z,1.90
2022-08-24T19:23:05.982Z,2.13
2022-08-24T19:25:33.200Z,1.83
2022-08-24T19:27:59.916Z,1.90
2022-08-24T19:30:28.067Z,2.10
2022-08-24T19:32:58.520Z,2.05
2022-08-24T19:35:25.273Z,2.03
2022-08-24T19:37:51.993Z,2.38
2022-08-24T19:40:20.962Z,1.80
2022-08-24T19:42:50.915Z,2.17
2022-08-24T19:45:38.320Z,2.00
2022-08-24T19:48:05.178Z,2.00
2022-08-24T19:50:35.540Z,2.10
2022-08-24T19:53:02.767Z,2.30
2022-08-24T19:55:29.547Z,2.20
2022-08-24T19:58:03.354Z,1.95
2022-08-24T20:00:48.155Z,1.85
2022-08-24T20:03:16.045Z,1.70
2022-08-24T20:05:42.752Z,2.00
2022-08-24T20:08:10.931Z,2.13
2022-08-24T20:10:38.169Z,1.77
2022-08-24T20:13:04.999Z,2.00
2022-08-24T20:15:32.389Z,2.67
2022-08-24T20:17:59.509Z,2.13
2022-08-24T20:20:27.243Z,2.00
2022-08-24T20:22:54.328Z,2.38
2022-08-24T20:25:20.942Z,2.20
2022-08-24T20:27:48.542Z,2.05
2022-08-24T20:30:16.145Z,2.35
2022-08-24T20:32:42.911Z,2.13
2022-08-24T20:35:10.337Z,2.10
2022-08-24T20:37:39.060Z,2.00
2022-08-24T20:40:05.997Z,1.65
2022-08-24T20:42:32.768Z,1.80
2022-08-24T20:45:00.054Z,1.90
2022-08-24T20:47:27.019Z,1.85
2022-08-24T20:49:54.044Z,2.13
2022-08-24T20:52:21.050Z,1.73
2022-08-24T20:54:47.745Z,2.17
2022-08-24T20:57:16.878Z,2.33
2022-08-24T20:59:50.361Z,2.03
2022-08-24T21:02:17.165Z,1.80
2022-08-24T21:04:43.784Z,1.95
2022-08-24T21:07:11.795Z,2.00
2022-08-24T21:09:38.729Z,1.77
2022-08-24T21:12:05.955Z,2.00
2022-08-24T21:14:32.603Z,1.80
2022-08-24T21:16:59.305Z,1.98
2022-08-24T21:19:25.997Z,2.15
2022-08-24T21:21:52.662Z,1.90
2022-08-24T21:24:19.341Z,2.22
2022-08-24T21:26:45.983Z,1.95
2022-08-24T21:29:12.689Z,2.10
2022-08-24T21:31:39.650Z,2.40
2022-08-24T21:34:25.058Z,1.98
2022-08-24T21:36:54.199Z,2.10
2022-08-24T21:39:21.135Z,2.00
2022-08-24T21:41:47.857Z,2.20
2022-08-24T21:44:14.581Z,1.98
2022-08-24T21:46:41.329Z,1.95
2022-08-24T21:49:12.021Z,2.35
2022-08-24T21:51:39.401Z,2.10
2022-08-24T21:54:06.053Z,2.13
2022-08-24T21:56:33.066Z,1.90
2022-08-24T21:58:59.838Z,1.95
2022-08-24T22:01:26.809Z,1.98
2022-08-24T22:03:53.606Z,1.80
2022-08-24T22:06:20.481Z,1.60
2022-08-24T22:08:47.262Z,2.05
2022-08-24T22:11:15.075Z,1.90
2022-08-24T22:13:42.365Z,1.90
2022-08-24T22:16:10.087Z,2.15
2022-08-24T22:18:37.306Z,1.92
2022-08-24T22:21:23.605Z,2.22
2022-08-24T22:23:50.399Z,1.85
2022-08-24T22:26:17.051Z,1.83
2022-08-24T22:28:43.728Z,1.85
2022-08-24T22:31:17.051Z,2.00
2022-08-24T22:33:43.813Z,1.80
2022-08-24T22:36:10.827Z,1.88
2022-08-24T22:38:38.366Z,1.83
2022-08-24T22:41:05.360Z,1.73
2022-08-24T22:43:52.038Z,2.15
2022-08-24T22:46:22.765Z,1.70
2022-08-24T22:48:49.601Z,2.05
2022-08-24T22:51:16.307Z,1.70
2022-08-24T22:53:43.109Z,1.63
2022-08-24T22:56:23.668Z,1.90
2022-08-24T22:58:50.891Z,1.85
2022-08-24T23:01:18.521Z,2.15
2022-08-24T23:03:45.537Z,2.28
2022-08-24T23:06:17.016Z,2.10
2022-08-24T23:08:43.790Z,1.90
2022-08-24T23:11:11.334Z,2.20
2022-08-24T23:13:39.069Z,1.80
2022-08-24T23:16:07.108Z,2.17
2022-08-24T23:18:52.229Z,1.65
2022-08-24T23:21:19.173Z,2.03
2022-08-24T23:23:46.417Z,1.95
2022-08-24T23:26:18.270Z,1.80
2022-08-24T23:28:46.948Z,2.00
2022-08-24T23:31:18.462Z,1.70
2022-08-24T23:33:45.279Z,1.80
2022-08-24T23:36:13.943Z,2.20
2022-08-24T23:38:40.799Z,1.80
2022-08-24T23:41:09.062Z,1.80
2022-08-24T23:43:36.185Z,1.77
2022-08-24T23:46:03.830Z,1.70
2022-08-24T23:48:30.979Z,2.00
2022-08-24T23:50:57.693Z,1.83
2022-08-24T23:53:24.683Z,1.80
2022-08-24T23:55:51.828Z,1.83
2022-08-24T23:58:21.027Z,1.92
